Time;durP1;ratioP1;P1;durP2;ratioP2;P2;SDS_P1;SDS_P2;PMS_P1;PMS_P2;Temp;Humidity;BMP_temperature;BMP_pressure;BME280_temperature;BME280_humidity;BME280_pressure;Samples;Min_cycle;Max_cycle;Signal;HPM_P1;HPM_P2
2021/10/23 00:02:27;;;;;;;1.17;0.30;;;10.20;99.90;;;;;;5093887;28;20465;-61
2021/10/23 00:04:54;;;;;;;0.50;0.30;;;10.10;99.90;;;;;;5094433;28;20432;-61
2021/10/23 00:07:21;;;;;;;0.90;0.30;;;10.10;99.90;;;;;;5094428;28;20703;-61
2021/10/23 00:09:49;;;;;;;0.90;0.40;;;10.10;99.90;;;;;;5094206;28;20491;-61
2021/10/23 00:12:17;;;;;;;0.90;0.30;;;10.10;99.90;;;;;;5095263;28;20512;-61
2021/10/23 00:14:44;;;;;;;1.40;0.30;;;10.00;99.90;;;;;;5094919;28;20410;-61
2021/10/23 00:17:11;;;;;;;0.75;0.30;;;10.10;99.90;;;;;;5093107;28;20426;-62
2021/10/23 00:19:42;;;;;;;1.00;0.50;;;9.90;99.90;;;;;;5092714;28;20797;-61
2021/10/23 00:22:15;;;;;;;1.00;0.50;;;9.70;99.90;;;;;;5092864;28;20913;-61
2021/10/23 00:24:43;;;;;;;1.20;0.40;;;9.60;99.90;;;;;;5093346;28;20421;-61
2021/10/23 00:27:10;;;;;;;1.20;0.50;;;9.50;99.90;;;;;;5094082;28;20900;-61
2021/10/23 00:29:39;;;;;;;1.70;0.40;;;9.40;99.90;;;;;;5093409;28;20444;-61
2021/10/23 00:32:07;;;;;;;1.73;0.40;;;9.20;99.90;;;;;;5094540;28;20721;-61
2021/10/23 00:34:36;;;;;;;0.85;0.40;;;9.40;99.90;;;;;;5092484;28;20464;-61
2021/10/23 00:37:04;;;;;;;3.20;0.40;;;9.30;99.90;;;;;;5092423;28;20429;-61
2021/10/23 00:39:34;;;;;;;1.20;0.30;;;9.30;99.90;;;;;;5092591;28;20444;-61
2021/10/23 00:42:06;;;;;;;2.00;0.40;;;9.30;99.90;;;;;;5093842;28;20414;-61
2021/10/23 00:44:35;;;;;;;0.90;0.40;;;9.30;99.90;;;;;;5093403;28;20434;-61
2021/10/23 00:47:04;;;;;;;0.70;0.40;;;9.30;99.90;;;;;;5093248;28;20517;-61
2021/10/23 00:49:32;;;;;;;1.20;0.40;;;9.50;99.90;;;;;;5093874;28;20424;-61
2021/10/23 00:52:00;;;;;;;0.90;0.30;;;9.60;99.90;;;;;;5093490;28;20520;-61
2021/10/23 00:54:29;;;;;;;1.08;0.30;;;9.70;99.90;;;;;;5096357;28;20418;-61
2021/10/23 00:56:58;;;;;;;1.30;0.40;;;9.70;99.90;;;;;;5095381;28;20450;-61
2021/10/23 00:59:25;;;;;;;1.30;0.30;;;9.70;99.90;;;;;;5096215;28;20508;-61
2021/10/23 01:01:53;;;;;;;1.73;0.40;;;9.80;99.90;;;;;;5096562;28;20453;-61
2021/10/23 01:04:21;;;;;;;0.80;0.30;;;9.90;99.90;;;;;;5096285;28;20914;-61
2021/10/23 01:06:49;;;;;;;0.70;0.38;;;10.10;99.90;;;;;;5096883;28;20489;-61
2021/10/23 01:09:18;;;;;;;1.70;0.40;;;10.20;99.90;;;;;;5097375;28;20781;-61
2021/10/23 01:11:48;;;;;;;0.73;0.30;;;10.30;99.90;;;;;;5097177;28;20413;-61
2021/10/23 01:14:18;;;;;;;0.80;0.30;;;10.20;99.90;;;;;;5098291;28;20787;-61
2021/10/23 01:16:46;;;;;;;0.85;0.30;;;10.20;99.90;;;;;;5097779;28;20499;-61
2021/10/23 01:19:15;;;;;;;0.90;0.40;;;10.20;99.90;;;;;;5098174;28;20418;-61
2021/10/23 01:21:46;;;;;;;0.90;0.40;;;10.20;99.90;;;;;;5097961;28;20414;-61
2021/10/23 01:24:13;;;;;;;1.20;0.30;;;10.10;99.90;;;;;;5097484;28;20429;-61
2021/10/23 01:26:42;;;;;;;0.80;0.40;;;10.10;99.90;;;;;;5098076;28;20501;-61
2021/10/23 01:29:12;;;;;;;1.70;0.30;;;10.10;99.90;;;;;;5097945;28;20830;-62
2021/10/23 01:31:40;;;;;;;0.90;0.38;;;10.30;99.90;;;;;;5097885;28;21007;-60
2021/10/23 01:34:12;;;;;;;1.25;0.30;;;10.50;99.90;;;;;;5097602;28;20905;-62
2021/10/23 01:36:45;;;;;;;1.40;0.40;;;10.60;99.90;;;;;;5096107;28;20697;-60
2021/10/23 01:39:13;;;;;;;0.63;0.35;;;10.60;99.90;;;;;;5098006;28;20467;-61
2021/10/23 01:41:41;;;;;;;1.50;0.40;;;10.40;99.90;;;;;;5097631;28;20501;-61
2021/10/23 01:44:09;;;;;;;1.15;0.38;;;10.10;99.90;;;;;;5097408;28;20517;-62
2021/10/23 01:46:36;;;;;;;0.93;0.40;;;10.10;99.90;;;;;;5097572;28;20420;-61
2021/10/23 01:49:05;;;;;;;1.15;0.40;;;10.00;99.90;;;;;;5097841;28;20422;-61
2021/10/23 01:51:33;;;;;;;0.60;0.30;;;10.00;99.90;;;;;;5096705;28;20852;-61
2021/10/23 01:54:04;;;;;;;0.90;0.40;;;9.70;99.90;;;;;;5097079;28;20457;-61
2021/10/23 01:56:32;;;;;;;1.00;0.40;;;9.70;99.90;;;;;;5097189;28;20845;-61
2021/10/23 01:59:00;;;;;;;0.90;0.30;;;9.60;99.90;;;;;;5096027;28;20486;-61
2021/10/23 02:01:27;;;;;;;0.75;0.40;;;9.50;99.90;;;;;;5095825;28;20449;-61
2021/10/23 02:03:54;;;;;;;0.93;0.40;;;9.60;99.90;;;;;;5094828;28;20426;-61
2021/10/23 02:06:22;;;;;;;1.67;0.40;;;9.70;99.90;;;;;;5095871;28;20936;-61
2021/10/23 02:08:50;;;;;;;0.80;0.40;;;9.90;99.90;;;;;;5096064;28;20747;-61
2021/10/23 02:11:19;;;;;;;0.77;0.40;;;10.00;99.90;;;;;;5095699;28;20787;-62
2021/10/23 02:13:47;;;;;;;0.90;0.40;;;10.00;99.90;;;;;;5096572;28;20425;-61
2021/10/23 02:16:15;;;;;;;0.70;0.30;;;10.00;99.90;;;;;;5097210;28;20538;-61
2021/10/23 02:18:42;;;;;;;1.80;0.37;;;10.00;99.90;;;;;;5096806;28;20811;-61
2021/10/23 02:21:11;;;;;;;1.88;0.40;;;10.00;99.90;;;;;;5096466;28;20823;-61
2021/10/23 02:23:38;;;;;;;1.00;0.40;;;9.90;99.90;;;;;;5096169;28;20430;-61
2021/10/23 02:26:06;;;;;;;1.70;0.30;;;9.90;99.90;;;;;;5095416;28;20798;-61
2021/10/23 02:28:35;;;;;;;1.17;0.40;;;9.80;99.90;;;;;;5094921;28;20502;-61
2021/10/23 02:31:02;;;;;;;0.50;0.30;;;9.70;99.90;;;;;;5094992;28;20863;-61
2021/10/23 02:33:30;;;;;;;0.80;0.30;;;9.70;99.90;;;;;;5095918;28;20430;-61
2021/10/23 02:35:57;;;;;;;0.85;0.30;;;9.80;99.90;;;;;;5094143;28;20524;-61
2021/10/23 02:38:24;;;;;;;1.20;0.40;;;10.00;99.90;;;;;;5095644;28;20786;-61
2021/10/23 02:40:51;;;;;;;0.90;0.30;;;10.00;99.90;;;;;;5096875;28;20452;-61
2021/10/23 02:43:19;;;;;;;1.48;0.32;;;10.00;99.90;;;;;;5096836;28;20432;-61
2021/10/23 02:45:47;;;;;;;1.00;0.40;;;10.00;99.90;;;;;;5096614;28;20481;-61
2021/10/23 02:48:15;;;;;;;0.70;0.40;;;10.00;99.90;;;;;;5096942;28;20448;-61
2021/10/23 02:50:42;;;;;;;1.08;0.40;;;9.90;99.90;;;;;;5096232;28;20467;-61
2021/10/23 02:53:09;;;;;;;0.80;0.40;;;9.80;99.90;;;;;;5095011;28;20436;-61
2021/10/23 02:55:37;;;;;;;0.80;0.30;;;9.70;99.90;;;;;;5096241;28;20420;-61
2021/10/23 02:58:05;;;;;;;0.60;0.40;;;9.70;99.90;;;;;;5096422;28;20432;-60
2021/10/23 03:00:32;;;;;;;1.00;0.30;;;9.80;99.90;;;;;;5096230;28;20429;-61
2021/10/23 03:03:01;;;;;;;1.20;0.30;;;9.80;99.90;;;;;;5095844;28;20432;-61
2021/10/23 03:05:28;;;;;;;1.20;0.50;;;9.80;99.90;;;;;;5094759;28;20437;-61
2021/10/23 03:07:55;;;;;;;1.40;0.38;;;9.90;99.90;;;;;;5094754;28;20875;-61
2021/10/23 03:10:23;;;;;;;0.70;0.40;;;9.80;99.90;;;;;;5096239;28;20438;-61
2021/10/23 03:12:50;;;;;;;1.10;0.40;;;9.70;99.90;;;;;;5095897;28;20512;-61
2021/10/23 03:15:17;;;;;;;1.20;0.40;;;9.60;99.90;;;;;;5095067;28;20815;-61
2021/10/23 03:17:44;;;;;;;0.65;0.40;;;9.30;99.90;;;;;;5095261;28;20457;-61
2021/10/23 03:20:14;;;;;;;1.20;0.40;;;9.10;99.90;;;;;;5094831;28;20797;-60
2021/10/23 03:22:41;;;;;;;0.70;0.40;;;8.90;99.90;;;;;;5094722;28;20792;-61
2021/10/23 03:25:09;;;;;;;0.70;0.40;;;8.80;99.90;;;;;;5094571;28;20528;-61
2021/10/23 03:27:37;;;;;;;1.40;0.30;;;8.90;99.90;;;;;;5095552;28;20805;-61
2021/10/23 03:30:06;;;;;;;1.50;0.50;;;8.80;99.90;;;;;;5094017;28;20504;-61
2021/10/23 03:32:33;;;;;;;0.75;0.40;;;8.80;99.90;;;;;;5094082;28;20425;-61
2021/10/23 03:35:01;;;;;;;0.70;0.40;;;8.80;99.90;;;;;;5092748;28;20450;-61
2021/10/23 03:37:31;;;;;;;1.05;0.40;;;8.80;99.90;;;;;;5093766;28;20521;-61
2021/10/23 03:39:59;;;;;;;1.20;0.40;;;8.90;99.90;;;;;;5093743;28;20417;-61
2021/10/23 03:42:26;;;;;;;0.88;0.40;;;9.00;99.90;;;;;;5093907;28;20449;-61
2021/10/23 03:44:53;;;;;;;1.70;0.40;;;9.10;99.90;;;;;;5094810;28;20428;-61
2021/10/23 03:47:21;;;;;;;0.70;0.40;;;9.10;99.90;;;;;;5093313;28;20529;-61
2021/10/23 03:49:48;;;;;;;2.30;0.40;;;9.00;99.90;;;;;;5093797;28;20781;-61
2021/10/23 03:52:16;;;;;;;0.63;0.40;;;9.00;99.90;;;;;;5093858;28;20512;-61
2021/10/23 03:54:44;;;;;;;0.82;0.40;;;9.00;99.90;;;;;;5093548;28;20406;-61
2021/10/23 03:57:12;;;;;;;1.10;0.40;;;9.00;99.90;;;;;;5094051;28;20418;-61
2021/10/23 03:59:39;;;;;;;1.85;0.45;;;8.90;99.90;;;;;;5094362;28;20417;-61
2021/10/23 04:02:06;;;;;;;2.17;0.40;;;8.90;99.90;;;;;;5095406;28;20516;-60
2021/10/23 04:04:33;;;;;;;1.02;0.40;;;8.90;99.90;;;;;;5095039;28;20457;-61
2021/10/23 04:07:00;;;;;;;0.80;0.30;;;9.00;99.90;;;;;;5094059;28;20541;-61
2021/10/23 04:09:28;;;;;;;1.20;0.40;;;9.00;99.90;;;;;;5095146;28;20834;-61
2021/10/23 04:11:57;;;;;;;1.00;0.40;;;9.20;99.90;;;;;;5095124;28;20512;-61
2021/10/23 04:14:24;;;;;;;1.20;0.40;;;9.30;99.90;;;;;;5095392;28;20848;-60
2021/10/23 04:16:51;;;;;;;0.70;0.40;;;9.30;99.90;;;;;;5095358;28;20410;-61
2021/10/23 04:19:18;;;;;;;2.83;0.40;;;9.40;99.90;;;;;;5095247;28;20458;-62
2021/10/23 04:21:45;;;;;;;1.23;0.40;;;9.50;99.90;;;;;;5094961;28;20500;-61
2021/10/23 04:24:13;;;;;;;0.70;0.40;;;9.60;99.90;;;;;;5095643;28;20532;-61
2021/10/23 04:26:41;;;;;;;1.10;0.40;;;9.70;99.90;;;;;;5096444;28;20417;-60
2021/10/23 04:29:09;;;;;;;1.40;0.40;;;9.90;99.90;;;;;;5098986;28;20520;-61
2021/10/23 04:31:36;;;;;;;1.52;0.40;;;9.90;99.90;;;;;;5097508;28;20914;-61
2021/10/23 04:34:04;;;;;;;2.23;0.40;;;9.80;99.90;;;;;;5096826;28;20424;-61
2021/10/23 04:36:31;;;;;;;2.10;0.40;;;9.70;99.90;;;;;;5094996;28;20508;-61
2021/10/23 04:38:58;;;;;;;0.90;0.40;;;9.60;99.90;;;;;;5096745;28;20464;-61
2021/10/23 04:41:25;;;;;;;3.47;0.40;;;9.60;99.90;;;;;;5096898;28;20436;-61
2021/10/23 04:43:52;;;;;;;0.70;0.40;;;9.50;99.90;;;;;;5096323;28;20475;-61
2021/10/23 04:46:21;;;;;;;0.70;0.30;;;9.40;99.90;;;;;;5096109;28;20516;-61
2021/10/23 04:48:48;;;;;;;1.40;0.45;;;9.40;99.90;;;;;;5097344;28;20432;-61
2021/10/23 04:51:15;;;;;;;0.70;0.40;;;9.50;99.90;;;;;;5097812;28;20420;-63
2021/10/23 04:53:42;;;;;;;0.90;0.40;;;9.40;99.90;;;;;;5097569;28;20426;-61
2021/10/23 04:56:10;;;;;;;1.58;0.45;;;9.30;99.90;;;;;;5097588;28;20505;-61
2021/10/23 04:58:38;;;;;;;0.80;0.40;;;9.20;99.90;;;;;;5098176;28;20429;-61
2021/10/23 05:01:06;;;;;;;0.70;0.45;;;9.10;99.90;;;;;;5097592;28;20422;-61
2021/10/23 05:03:35;;;;;;;1.50;0.60;;;8.90;99.90;;;;;;5096916;28;20426;-61
2021/10/23 05:06:02;;;;;;;1.90;0.50;;;8.80;99.90;;;;;;5098197;28;20430;-61
2021/10/23 05:08:29;;;;;;;1.80;0.40;;;8.90;99.90;;;;;;5098426;28;20417;-61
2021/10/23 05:10:56;;;;;;;0.65;0.40;;;8.90;99.90;;;;;;5098640;28;20426;-61
2021/10/23 05:13:23;;;;;;;0.90;0.40;;;8.90;99.90;;;;;;5097731;28;20520;-61
2021/10/23 05:15:51;;;;;;;0.75;0.50;;;8.90;99.90;;;;;;5095886;28;20416;-62
2021/10/23 05:18:18;;;;;;;1.10;0.47;;;8.90;99.90;;;;;;5094769;28;20528;-61
2021/10/23 05:20:46;;;;;;;1.30;0.50;;;8.80;99.90;;;;;;5094942;28;20864;-61
2021/10/23 05:23:14;;;;;;;1.30;0.50;;;8.80;99.90;;;;;;5094061;28;20528;-61
2021/10/23 05:25:41;;;;;;;1.75;0.40;;;8.80;99.90;;;;;;5094414;28;20461;-61
2021/10/23 05:28:08;;;;;;;0.75;0.50;;;8.70;99.90;;;;;;5095077;28;20421;-61
2021/10/23 05:30:35;;;;;;;1.87;0.50;;;8.80;99.90;;;;;;5095686;28;20978;-61
2021/10/23 05:33:03;;;;;;;2.13;0.47;;;9.00;99.90;;;;;;5095702;28;20421;-61
2021/10/23 05:35:30;;;;;;;2.50;0.50;;;9.00;99.90;;;;;;5094463;28;20497;-61
2021/10/23 05:37:59;;;;;;;0.90;0.40;;;9.10;99.90;;;;;;5095791;28;20429;-61
2021/10/23 05:40:26;;;;;;;0.90;0.40;;;9.20;99.90;;;;;;5096654;28;20497;-61
2021/10/23 05:42:53;;;;;;;0.90;0.50;;;9.30;99.90;;;;;;5096361;28;20898;-61
2021/10/23 05:45:21;;;;;;;0.80;0.50;;;9.30;99.90;;;;;;5095539;28;20425;-61
2021/10/23 05:47:48;;;;;;;0.80;0.50;;;9.40;99.90;;;;;;5096994;28;20436;-61
2021/10/23 05:50:15;;;;;;;1.00;0.50;;;9.30;99.90;;;;;;5096871;28;20611;-61
2021/10/23 05:52:42;;;;;;;1.25;0.40;;;9.10;99.90;;;;;;5097201;28;20516;-60
2021/10/23 05:55:11;;;;;;;1.08;0.50;;;8.90;99.90;;;;;;5097501;28;20881;-61
2021/10/23 05:57:38;;;;;;;1.20;0.50;;;8.80;99.90;;;;;;5096979;28;20421;-60
2021/10/23 06:00:10;;;;;;;2.00;0.40;;;8.70;99.90;;;;;;5097099;28;20418;-60
2021/10/23 06:02:38;;;;;;;0.90;0.60;;;8.70;99.90;;;;;;5097043;28;20430;-60
2021/10/23 06:05:07;;;;;;;1.10;0.50;;;8.70;99.90;;;;;;5093849;28;20608;-61
2021/10/23 06:07:38;;;;;;;0.80;0.50;;;8.70;99.90;;;;;;5093965;28;21030;-60
2021/10/23 06:10:07;;;;;;;1.70;0.50;;;8.70;99.90;;;;;;5092958;28;20418;-61
2021/10/23 06:12:36;;;;;;;1.10;0.40;;;8.80;99.90;;;;;;5095006;28;20812;-61
2021/10/23 06:15:05;;;;;;;0.80;0.50;;;9.10;99.90;;;;;;5094774;28;20414;-61
2021/10/23 06:17:33;;;;;;;0.90;0.50;;;9.30;99.90;;;;;;5094943;28;20896;-61
2021/10/23 06:20:01;;;;;;;1.40;0.50;;;9.40;99.90;;;;;;5095557;28;20493;-61
2021/10/23 06:22:28;;;;;;;1.20;0.40;;;9.40;99.90;;;;;;5095538;28;20849;-61
2021/10/23 06:24:56;;;;;;;0.95;0.50;;;9.70;99.90;;;;;;5096122;28;20461;-61
2021/10/23 06:27:23;;;;;;;0.90;0.50;;;9.70;99.90;;;;;;5096037;28;20516;-61
2021/10/23 06:29:51;;;;;;;1.40;0.50;;;9.50;99.90;;;;;;5095322;28;20479;-62
2021/10/23 06:32:19;;;;;;;1.70;0.60;;;9.30;99.90;;;;;;5096360;28;20456;-61
2021/10/23 06:34:46;;;;;;;0.80;0.50;;;9.10;99.90;;;;;;5096439;28;20496;-61
2021/10/23 06:37:18;;;;;;;1.40;0.60;;;9.10;99.90;;;;;;5095461;28;20520;-62
2021/10/23 06:39:45;;;;;;;1.10;0.40;;;8.80;99.90;;;;;;5095478;28;20422;-63
2021/10/23 06:42:12;;;;;;;1.40;0.50;;;8.70;99.90;;;;;;5095597;28;20445;-62
2021/10/23 06:44:40;;;;;;;1.50;0.50;;;8.70;99.90;;;;;;5096104;28;20464;-63
2021/10/23 06:47:08;;;;;;;1.00;0.50;;;8.90;99.90;;;;;;5095789;28;20576;-64
2021/10/23 06:49:36;;;;;;;1.67;0.50;;;9.00;99.90;;;;;;5095706;28;20421;-63
2021/10/23 06:52:03;;;;;;;0.70;0.50;;;9.10;99.90;;;;;;5094770;28;20427;-62
2021/10/23 06:54:30;;;;;;;1.02;0.50;;;9.00;99.90;;;;;;5093271;28;20721;-62
2021/10/23 06:56:58;;;;;;;0.90;0.50;;;9.00;99.90;;;;;;5093311;28;20516;-62
2021/10/23 06:59:25;;;;;;;1.58;0.52;;;8.90;99.90;;;;;;5094063;28;20850;-62
2021/10/23 07:01:52;;;;;;;1.60;0.50;;;8.90;99.90;;;;;;5085521;28;20422;-61
2021/10/23 07:04:21;;;;;;;0.90;0.50;;;8.80;99.90;;;;;;5089798;28;20517;-62
2021/10/23 07:06:48;;;;;;;1.47;0.50;;;8.80;99.90;;;;;;5088383;28;20807;-61
2021/10/23 07:09:16;;;;;;;3.30;0.60;;;8.90;99.90;;;;;;5090644;28;20508;-62
2021/10/23 07:11:43;;;;;;;2.60;0.50;;;8.80;99.90;;;;;;5091337;28;20468;-62
2021/10/23 07:14:10;;;;;;;1.00;0.60;;;8.90;99.90;;;;;;5092389;28;20919;-61
2021/10/23 07:16:37;;;;;;;1.80;0.50;;;8.90;99.90;;;;;;5092438;28;20509;-61
2021/10/23 07:19:05;;;;;;;1.00;0.50;;;8.80;99.90;;;;;;5092331;28;20512;-61
2021/10/23 07:21:34;;;;;;;0.70;0.45;;;8.80;99.90;;;;;;5093391;28;20778;-61
2021/10/23 07:24:01;;;;;;;1.80;0.60;;;8.90;99.90;;;;;;5093847;28;20453;-61
2021/10/23 07:26:29;;;;;;;1.42;0.60;;;8.90;99.90;;;;;;5085048;28;20801;-61
2021/10/23 07:28:56;;;;;;;0.82;0.40;;;9.00;99.90;;;;;;5086067;28;20447;-62
2021/10/23 07:31:24;;;;;;;1.00;0.50;;;9.00;99.90;;;;;;5081944;28;20733;-64
2021/10/23 07:33:52;;;;;;;1.45;0.50;;;8.90;99.90;;;;;;5094194;28;20429;-63
2021/10/23 07:36:19;;;;;;;1.52;0.50;;;8.90;99.90;;;;;;5093655;28;20467;-62
2021/10/23 07:38:48;;;;;;;1.60;0.50;;;8.90;99.90;;;;;;5090971;28;20429;-64
2021/10/23 07:41:15;;;;;;;1.40;0.50;;;8.90;99.90;;;;;;5077249;28;20427;-63
2021/10/23 07:43:43;;;;;;;1.58;0.50;;;8.90;99.90;;;;;;5061743;28;20430;-64
2021/10/23 07:46:10;;;;;;;0.90;0.50;;;8.90;99.90;;;;;;5093299;28;20444;-63
2021/10/23 07:48:38;;;;;;;2.20;0.50;;;8.80;99.90;;;;;;5087212;28;20736;-63
2021/10/23 07:51:05;;;;;;;1.30;0.50;;;8.90;99.90;;;;;;5086458;28;20464;-64
2021/10/23 07:53:33;;;;;;;2.60;0.50;;;9.00;99.90;;;;;;5091203;28;20430;-63
2021/10/23 07:56:02;;;;;;;2.75;0.50;;;9.00;99.90;;;;;;5089210;28;20422;-63
2021/10/23 07:58:30;;;;;;;1.50;0.55;;;9.10;99.90;;;;;;5087797;28;20532;-63
2021/10/23 08:00:59;;;;;;;1.23;0.50;;;9.10;99.90;;;;;;5091696;28;20492;-64
2021/10/23 08:03:26;;;;;;;1.83;0.90;;;9.20;99.90;;;;;;5093680;28;20434;-63
2021/10/23 08:05:53;;;;;;;1.05;0.60;;;9.30;99.90;;;;;;5093609;28;20507;-63
2021/10/23 08:08:20;;;;;;;1.42;0.40;;;9.30;99.90;;;;;;5090888;28;20493;-64
2021/10/23 08:10:48;;;;;;;3.45;0.55;;;9.40;99.90;;;;;;5090564;28;20422;-63
2021/10/23 08:13:17;;;;;;;3.50;1.10;;;9.60;99.90;;;;;;5090475;28;20821;-64
2021/10/23 08:15:45;;;;;;;2.20;0.70;;;9.80;99.90;;;;;;5090931;28;20410;-63
2021/10/23 08:18:12;;;;;;;1.20;0.50;;;10.00;99.90;;;;;;5092675;28;20506;-63
2021/10/23 08:20:39;;;;;;;1.63;0.50;;;10.10;99.90;;;;;;5093343;28;20536;-62
2021/10/23 08:23:06;;;;;;;1.33;0.60;;;10.20;99.90;;;;;;5089038;28;20433;-63
2021/10/23 08:25:35;;;;;;;1.00;0.50;;;10.30;99.90;;;;;;5093904;28;20565;-63
2021/10/23 08:28:02;;;;;;;1.08;0.50;;;10.30;99.90;;;;;;5093569;28;20849;-63
2021/10/23 08:30:31;;;;;;;1.77;0.50;;;10.30;99.90;;;;;;5093044;28;20432;-65
2021/10/23 08:32:59;;;;;;;1.30;0.60;;;10.30;99.90;;;;;;5092260;28;20434;-63
2021/10/23 08:35:28;;;;;;;1.87;0.50;;;10.50;99.90;;;;;;5093111;28;20480;-66
2021/10/23 08:37:56;;;;;;;0.82;0.60;;;10.60;99.90;;;;;;5089948;28;20449;-63
2021/10/23 08:40:24;;;;;;;1.25;0.63;;;10.80;99.90;;;;;;5090829;28;20520;-64
2021/10/23 08:42:51;;;;;;;2.42;0.80;;;10.80;99.90;;;;;;5086079;28;20542;-63
2021/10/23 08:45:19;;;;;;;2.20;0.90;;;10.80;99.90;;;;;;5088659;28;20426;-64
2021/10/23 08:47:50;;;;;;;1.30;0.50;;;11.20;99.90;;;;;;5088629;28;20446;-62
2021/10/23 08:50:21;;;;;;;1.80;0.50;;;11.10;99.90;;;;;;5091860;28;20434;-61
2021/10/23 08:52:52;;;;;;;0.80;0.50;;;11.00;99.90;;;;;;5092628;28;21228;-61
2021/10/23 08:55:22;;;;;;;2.00;0.60;;;10.90;99.90;;;;;;5093076;28;20457;-63
2021/10/23 08:57:49;;;;;;;1.30;0.60;;;11.10;99.90;;;;;;5092689;28;20504;-63
2021/10/23 09:00:17;;;;;;;1.10;0.50;;;11.10;99.90;;;;;;5089971;28;20520;-63
2021/10/23 09:02:45;;;;;;;1.00;0.40;;;11.40;99.90;;;;;;5090868;28;20456;-63
2021/10/23 09:05:21;;;;;;;1.30;0.50;;;11.50;99.90;;;;;;5092085;28;20479;-63
2021/10/23 09:07:50;;;;;;;0.80;0.43;;;11.70;99.90;;;;;;5089539;28;20429;-63
2021/10/23 09:10:25;;;;;;;2.47;1.40;;;11.80;99.90;;;;;;5092903;28;20487;-60
2021/10/23 09:13:06;;;;;;;3.05;1.35;;;12.00;99.90;;;;;;5092386;28;20500;-60
2021/10/23 09:15:37;;;;;;;2.37;1.00;;;12.10;99.90;;;;;;5094705;28;20491;-60
2021/10/23 09:18:04;;;;;;;0.90;0.60;;;12.20;99.90;;;;;;5090835;28;20498;-60
2021/10/23 09:20:39;;;;;;;2.40;0.50;;;12.20;99.90;;;;;;5094378;28;20434;-60
2021/10/23 09:23:17;;;;;;;1.38;0.55;;;12.20;99.90;;;;;;5093556;28;20425;-60
2021/10/23 09:25:49;;;;;;;1.70;0.50;;;12.30;99.90;;;;;;5093795;28;20437;-60
2021/10/23 09:28:26;;;;;;;16.58;11.55;;;12.20;99.90;;;;;;5092781;28;20429;-60
2021/10/23 09:30:55;;;;;;;5.05;2.95;;;12.40;99.90;;;;;;5093809;28;20512;-60
2021/10/23 09:33:25;;;;;;;1.45;0.50;;;12.70;99.90;;;;;;5090408;28;20701;-61
2021/10/23 09:35:56;;;;;;;2.58;0.68;;;13.00;99.90;;;;;;5089689;28;20438;-60
2021/10/23 09:38:25;;;;;;;1.55;0.75;;;13.10;99.90;;;;;;5090670;28;20890;-59
2021/10/23 09:40:55;;;;;;;1.80;0.70;;;13.00;99.90;;;;;;5088890;28;20904;-61
2021/10/23 09:43:28;;;;;;;2.08;0.60;;;12.90;99.90;;;;;;5090575;28;20429;-62
2021/10/23 09:46:15;;;;;;;4.00;1.90;;;13.30;99.90;;;;;;5092570;28;20462;-63
2021/10/23 09:48:44;;;;;;;3.95;1.30;;;13.60;99.90;;;;;;5091225;28;20417;-61
2021/10/23 09:51:20;;;;;;;0.95;0.70;;;13.70;99.90;;;;;;5093125;28;20908;-61
2021/10/23 09:53:49;;;;;;;3.40;0.80;;;13.60;99.90;;;;;;5092449;28;20430;-58
2021/10/23 09:56:22;;;;;;;1.90;0.50;;;13.60;99.90;;;;;;5092087;28;20418;-59
2021/10/23 09:58:54;;;;;;;0.82;0.50;;;13.50;99.90;;;;;;5087428;28;20426;-58
2021/10/23 10:01:25;;;;;;;1.00;0.50;;;13.40;99.90;;;;;;5089245;28;20874;-59
2021/10/23 10:03:54;;;;;;;11.07;0.80;;;13.40;99.90;;;;;;5092557;28;21202;-59
2021/10/23 10:06:23;;;;;;;3.05;0.60;;;13.30;99.90;;;;;;5091449;28;20426;-59
2021/10/23 10:08:55;;;;;;;3.20;0.70;;;13.30;99.90;;;;;;5092216;28;20929;-59
2021/10/23 10:11:24;;;;;;;1.48;0.55;;;13.40;99.90;;;;;;5093231;28;20429;-58
2021/10/23 10:13:53;;;;;;;1.90;0.50;;;13.50;99.90;;;;;;5094093;28;20738;-59
2021/10/23 10:16:23;;;;;;;0.80;0.50;;;13.70;99.90;;;;;;5085842;28;20467;-58
2021/10/23 10:18:53;;;;;;;1.30;0.60;;;13.70;99.90;;;;;;5085017;28;20509;-58
2021/10/23 10:21:23;;;;;;;1.48;0.70;;;13.90;99.90;;;;;;5077179;28;20420;-59
2021/10/23 10:23:52;;;;;;;1.80;0.60;;;13.80;99.90;;;;;;5090641;28;20437;-58
2021/10/23 10:26:32;;;;;;;1.90;0.60;;;14.00;99.90;;;;;;5091261;28;20471;-59
2021/10/23 10:29:26;;;;;;;2.20;0.70;;;14.00;99.90;;;;;;5088459;28;20892;-59
2021/10/23 10:32:11;;;;;;;2.38;0.70;;;13.50;99.90;;;;;;5086700;28;20448;-59
2021/10/23 10:38:25;;;;;;;2.83;0.70;;;13.30;99.90;;;;;;5072063;28;20561;-59
2021/10/23 10:44:21;;;;;;;1.50;0.80;;;13.20;99.90;;;;;;5092164;28;20910;-60
2021/10/23 10:47:08;;;;;;;1.70;0.80;;;13.20;99.90;;;;;;5093924;28;20841;-58
2021/10/23 10:49:53;;;;;;;2.45;0.70;;;13.50;99.90;;;;;;5093187;28;20487;-59
2021/10/23 10:53:03;;;;;;;0.70;0.60;;;13.50;99.90;;;;;;5092252;28;20430;-59
2021/10/23 10:55:41;;;;;;;0.82;0.60;;;13.90;99.90;;;;;;5092194;28;20433;-59
2021/10/23 10:58:10;;;;;;;1.30;0.60;;;14.10;99.90;;;;;;5091080;28;20418;-59
2021/10/23 11:01:21;;;;;;;1.90;0.60;;;14.40;99.90;;;;;;5088758;28;20903;-63
2021/10/23 11:04:05;;;;;;;0.88;0.60;;;14.70;99.90;;;;;;5089386;28;20426;-59
2021/10/23 11:06:53;;;;;;;1.00;0.60;;;15.10;99.90;;;;;;5077843;28;20460;-59
2021/10/23 11:09:44;;;;;;;2.20;0.70;;;15.50;99.90;;;;;;5092339;28;20479;-59
2021/10/23 11:12:37;;;;;;;1.63;0.60;;;15.60;99.90;;;;;;5085803;28;20468;-58
2021/10/23 11:15:05;;;;;;;2.03;0.77;;;15.50;99.90;;;;;;5089503;28;20504;-63
2021/10/23 11:17:40;;;;;;;2.10;0.60;;;15.70;99.90;;;;;;5092270;28;20513;-58
2021/10/23 11:20:13;;;;;;;1.23;0.50;;;16.00;99.90;;;;;;5088786;28;20429;-58
2021/10/23 11:22:50;;;;;;;0.90;0.50;;;16.10;99.90;;;;;;5090360;28;20453;-58
2021/10/23 11:25:25;;;;;;;1.02;0.60;;;16.20;99.90;;;;;;5088040;28;20444;-58
2021/10/23 11:27:54;;;;;;;2.55;0.50;;;15.80;99.90;;;;;;5087844;28;20943;-59
2021/10/23 11:30:28;;;;;;;1.10;0.60;;;16.00;99.90;;;;;;5089017;28;20879;-59
2021/10/23 11:32:58;;;;;;;0.90;0.60;;;15.90;99.90;;;;;;5087006;28;20885;-59
2021/10/23 11:35:37;;;;;;;1.95;0.50;;;15.60;99.90;;;;;;5087612;28;20433;-59
2021/10/23 11:38:07;;;;;;;1.50;0.50;;;15.30;99.90;;;;;;5087836;28;20453;-59
2021/10/23 11:40:36;;;;;;;0.90;0.60;;;15.20;99.90;;;;;;5096011;28;20508;-59
2021/10/23 11:43:07;;;;;;;1.20;0.50;;;15.10;99.90;;;;;;5093679;28;20421;-58
2021/10/23 11:45:41;;;;;;;1.00;0.57;;;14.80;99.90;;;;;;5089526;28;20436;-59
2021/10/23 11:48:12;;;;;;;1.40;0.70;;;14.60;99.90;;;;;;5088201;28;20835;-59
2021/10/23 11:50:44;;;;;;;1.35;0.50;;;14.40;99.90;;;;;;5087223;28;20925;-59
2021/10/23 11:53:17;;;;;;;1.30;0.60;;;14.50;99.90;;;;;;5089093;28;20422;-59
2021/10/23 11:55:52;;;;;;;1.20;0.60;;;14.20;99.90;;;;;;5090870;28;20421;-58
2021/10/23 11:58:28;;;;;;;0.85;0.50;;;14.10;99.90;;;;;;5085586;28;20417;-58
2021/10/23 12:01:02;;;;;;;0.60;0.47;;;14.10;99.90;;;;;;5090879;28;20507;-58
2021/10/23 12:03:38;;;;;;;0.80;0.40;;;14.10;99.90;;;;;;5088285;28;20430;-58
2021/10/23 12:06:16;;;;;;;1.48;0.60;;;14.00;99.90;;;;;;5092176;28;20454;-58
2021/10/23 12:08:50;;;;;;;0.93;0.60;;;14.20;99.90;;;;;;5084913;28;20564;-58
2021/10/23 12:11:19;;;;;;;0.80;0.50;;;14.30;99.90;;;;;;5089638;28;20428;-59
2021/10/23 12:14:03;;;;;;;1.67;0.50;;;14.40;99.90;;;;;;5087401;28;20486;-59
2021/10/23 12:16:40;;;;;;;1.00;0.50;;;14.70;99.90;;;;;;5088476;28;20483;-58
2021/10/23 12:19:22;;;;;;;0.80;0.40;;;14.80;99.90;;;;;;5088226;28;20497;-60
2021/10/23 12:22:07;;;;;;;1.23;0.50;;;14.90;99.90;;;;;;5087612;28;20414;-59
2021/10/23 12:24:37;;;;;;;0.80;0.50;;;15.00;99.90;;;;;;5086747;28;20519;-58
2021/10/23 12:27:27;;;;;;;1.70;0.40;;;15.20;99.90;;;;;;5090619;28;20429;-59
2021/10/23 12:30:04;;;;;;;1.02;0.57;;;15.30;99.90;;;;;;5078105;28;20433;-59
2021/10/23 12:32:41;;;;;;;1.20;0.60;;;15.20;99.90;;;;;;5088875;28;20776;-58
2021/10/23 12:35:21;;;;;;;0.77;0.50;;;14.80;99.90;;;;;;5083096;28;20422;-59
2021/10/23 12:37:54;;;;;;;0.80;0.60;;;14.40;99.90;;;;;;5089179;28;20426;-59
2021/10/23 12:40:31;;;;;;;0.90;0.50;;;14.50;99.90;;;;;;5091310;28;20433;-59
2021/10/23 12:43:03;;;;;;;1.00;0.50;;;14.40;99.90;;;;;;5089592;28;20429;-60
2021/10/23 12:45:44;;;;;;;2.08;0.50;;;14.10;99.90;;;;;;5090200;28;20433;-59
2021/10/23 12:48:16;;;;;;;0.80;0.50;;;14.10;99.90;;;;;;5091702;28;20430;-59
2021/10/23 12:50:51;;;;;;;1.30;0.50;;;14.20;99.90;;;;;;5093197;28;20702;-59
2021/10/23 12:53:19;;;;;;;1.00;0.50;;;14.30;99.90;;;;;;5093768;28;20521;-59
2021/10/23 12:55:47;;;;;;;1.00;0.40;;;14.40;99.90;;;;;;5092426;28;20524;-59
2021/10/23 12:58:17;;;;;;;2.10;0.50;;;14.60;99.90;;;;;;5090969;28;20811;-59
2021/10/23 13:00:48;;;;;;;0.80;0.50;;;14.40;99.90;;;;;;5091559;28;20420;-59
2021/10/23 13:03:21;;;;;;;0.80;0.40;;;14.40;99.90;;;;;;5092629;28;20422;-59
2021/10/23 13:05:52;;;;;;;0.90;0.40;;;14.40;99.90;;;;;;5080335;28;20452;-59
2021/10/23 13:08:26;;;;;;;1.10;0.40;;;14.40;99.90;;;;;;5090173;28;20433;-59
2021/10/23 13:10:55;;;;;;;1.20;0.40;;;14.40;99.90;;;;;;5093596;28;20418;-59
2021/10/23 13:13:24;;;;;;;2.20;0.40;;;14.50;99.90;;;;;;5094128;28;20768;-59
2021/10/23 13:15:55;;;;;;;0.70;0.40;;;14.60;99.90;;;;;;5093634;28;20930;-60